Time,TemperatureF,DewpointF,PressureIn,WindDirection,WindDirectionDegrees,WindSpeedMPH,WindSpeedGustMPH,Humidity,HourlyPrecipIn,Conditions,Clouds,dailyrainin,SoftwareType,DateUTC
2013-03-07 00:00:00,11.3,6.8,30.19,NW,315,0.0,0.0,82,0.00,,,1.96,WUHU21623XXSP,2013-03-07 06:00:00,
2013-03-07 00:05:00,9.7,4.4,30.19,NW,315,0.0,0.0,79,0.00,,,0.00,WUHU21623XXSP,2013-03-07 06:05:00,
2013-03-07 00:10:00,8.4,3.8,30.19,NW,315,0.0,0.0,81,0.00,,,0.00,WUHU21623XXSP,2013-03-07 06:10:00,
2013-03-07 00:15:00,9.1,4.7,30.19,NW,315,0.0,0.0,82,0.00,,,0.00,WUHU21623XXSP,2013-03-07 06:15:00,
2013-03-07 00:20:00,9.3,4.9,30.19,NW,315,0.0,0.0,82,0.00,,,0.00,WUHU21623XXSP,2013-03-07 06:20:00,
2013-03-07 00:25:00,9.7,5.2,30.19,NW,315,0.1,0.9,82,0.00,,,0.00,WUHU21623XXSP,2013-03-07 06:25:00,
2013-03-07 00:30:00,6.1,0.4,30.19,NW,315,0.0,0.9,77,0.00,,,0.00,WUHU21623XXSP,2013-03-07 06:30:00,
2013-03-07 00:35:00,6.6,2.0,30.19,NW,315,0.0,0.9,81,0.00,,,0.00,WUHU21623XXSP,2013-03-07 06:35:00,
2013-03-07 00:40:00,7.3,2.7,30.20,NW,315,0.0,0.0,81,0.00,,,0.00,WUHU21623XXSP,2013-03-07 06:40:00,
2013-03-07 00:45:00,5.2,-0.3,30.20,NW,315,0.0,0.0,78,0.00,,,0.00,WUHU21623XXSP,2013-03-07 06:45:00,
2013-03-07 00:50:00,6.6,2.3,30.20,NW,315,0.0,0.0,82,0.00,,,0.00,WUHU21623XXSP,2013-03-07 06:50:00,
2013-03-07 00:55:00,7.5,3.2,30.20,NW,315,0.0,0.0,82,0.00,,,0.00,WUHU21623XXSP,2013-03-07 06:55:00,
2013-03-07 01:00:00,7.5,3.2,30.20,NW,315,0.0,0.0,82,0.00,,,0.00,WUHU21623XXSP,2013-03-07 07:00:00,
2013-03-07 01:05:00,7.0,2.4,30.21,NW,315,0.0,0.0,81,0.00,,,0.00,WUHU21623XXSP,2013-03-07 07:05:00,
2013-03-07 01:10:00,5.0,-0.1,30.21,West,270,0.0,0.0,79,0.00,,,0.00,WUHU21623XXSP,2013-03-07 07:10:00,
2013-03-07 01:15:00,4.1,-1.0,30.21,West,270,0.0,0.0,79,0.00,,,0.00,WUHU21623XXSP,2013-03-07 07:15:00,
2013-03-07 01:20:00,4.3,-0.3,30.21,West,270,0.0,0.0,81,0.00,,,0.00,WUHU21623XXSP,2013-03-07 07:20:00,
2013-03-07 01:25:00,6.4,2.1,30.22,West,270,0.0,0.0,82,0.00,,,0.00,WUHU21623XXSP,2013-03-07 07:25:00,
2013-03-07 01:30:00,7.5,3.2,30.22,West,270,0.0,0.0,82,0.00,,,0.00,WUHU21623XXSP,2013-03-07 07:30:00,
2013-03-07 01:35:00,7.5,3.2,30.22,West,270,0.0,0.0,82,0.00,,,0.00,WUHU21623XXSP,2013-03-07 07:35:00,
2013-03-07 01:40:00,7.0,2.6,30.21,West,270,0.0,0.0,82,0.00,,,0.00,WUHU21623XXSP,2013-03-07 07:40:00,
2013-03-07 01:45:00,6.4,1.6,30.22,West,270,0.0,0.0,80,0.00,,,0.00,WUHU21623XXSP,2013-03-07 07:45:00,
2013-03-07 01:50:00,7.2,2.8,30.22,West,270,0.0,0.0,82,0.00,,,0.00,WUHU21623XXSP,2013-03-07 07:50:00,
2013-03-07 01:55:00,7.5,3.2,30.22,West,270,0.0,0.0,82,0.00,,,0.00,WUHU21623XXSP,2013-03-07 07:55:00,
2013-03-07 02:00:00,7.9,3.5,30.22,West,270,0.0,0.0,82,0.00,,,0.00,WUHU21623XXSP,2013-03-07 08:00:00,
2013-03-07 02:05:00,8.2,3.9,30.22,West,270,0.0,0.0,82,0.00,,,0.00,WUHU21623XXSP,2013-03-07 08:05:00,
2013-03-07 02:10:00,8.1,3.7,30.22,West,270,0.0,0.0,82,0.00,,,0.00,WUHU21623XXSP,2013-03-07 08:10:00,
2013-03-07 02:15:00,8.2,3.9,30.21,West,270,0.0,0.0,82,0.00,,,0.00,WUHU21623XXSP,2013-03-07 08:15:00,
2013-03-07 02:20:00,8.4,4.1,30.21,West,270,0.0,0.0,82,0.00,,,0.00,WUHU21623XXSP,2013-03-07 08:20:00,
2013-03-07 02:25:00,7.9,3.3,30.21,West,270,0.0,0.0,81,0.00,,,0.00,WUHU21623XXSP,2013-03-07 08:25:00,
2013-03-07 02:30:00,7.5,3.2,30.21,West,270,0.0,0.0,82,0.00,,,0.00,WUHU21623XXSP,2013-03-07 08:30:00,
2013-03-07 02:35:00,7.5,3.2,30.20,West,270,0.0,0.0,82,0.00,,,0.00,WUHU21623XXSP,2013-03-07 08:35:00,
2013-03-07 02:40:00,7.0,2.4,30.20,West,270,0.0,0.0,81,0.00,,,0.00,WUHU21623XXSP,2013-03-07 08:40:00,
2013-03-07 02:45:00,6.4,1.6,30.20,West,270,0.0,0.0,80,0.00,,,0.00,WUHU21623XXSP,2013-03-07 08:45:00,
2013-03-07 02:50:00,5.5,0.7,30.19,West,270,0.0,0.0,80,0.00,,,0.00,WUHU21623XXSP,2013-03-07 08:50:00,
2013-03-07 02:56:00,5.9,1.0,30.20,West,270,0.0,0.0,80,0.00,,,0.00,WUHU21623XXSP,2013-03-07 08:56:00,
2013-03-07 03:01:00,5.5,0.4,30.20,West,270,0.0,0.0,79,0.00,,,0.00,WUHU21623XXSP,2013-03-07 09:01:00,
2013-03-07 03:06:00,4.8,-0.3,30.20,West,270,0.0,0.0,79,0.00,,,0.00,WUHU21623XXSP,2013-03-07 09:06:00,
2013-03-07 03:11:00,4.6,-0.5,30.21,West,270,0.0,0.0,79,0.00,,,0.00,WUHU21623XXSP,2013-03-07 09:11:00,
2013-03-07 03:16:00,4.5,-0.7,30.21,West,270,0.0,0.0,79,0.00,,,0.00,WUHU21623XXSP,2013-03-07 09:16:00,
2013-03-07 03:21:00,5.0,0.1,30.21,West,270,0.0,0.0,80,0.00,,,0.00,WUHU21623XXSP,2013-03-07 09:21:00,
2013-03-07 03:26:00,4.8,-0.3,30.21,West,270,0.0,0.0,79,0.00,,,0.00,WUHU21623XXSP,2013-03-07 09:26:00,
2013-03-07 03:31:00,4.5,-0.7,30.21,West,270,0.0,0.0,79,0.00,,,0.00,WUHU21623XXSP,2013-03-07 09:31:00,
2013-03-07 03:36:00,4.3,-0.9,30.21,West,270,0.0,0.0,79,0.00,,,0.00,WUHU21623XXSP,2013-03-07 09:36:00,
2013-03-07 03:41:00,5.7,1.1,30.21,WNW,292,0.0,0.0,81,0.00,,,0.00,WUHU21623XXSP,2013-03-07 09:41:00,
2013-03-07 03:46:00,6.1,1.7,30.22,WNW,292,0.0,0.0,82,0.00,,,0.00,WUHU21623XXSP,2013-03-07 09:46:00,
2013-03-07 03:51:00,3.0,-2.4,30.22,WNW,292,0.0,0.0,78,0.00,,,0.00,WUHU21623XXSP,2013-03-07 09:51:00,
2013-03-07 03:56:00,2.5,-2.9,30.22,WNW,292,0.0,0.0,78,0.00,,,0.00,WUHU21623XXSP,2013-03-07 09:56:00,
2013-03-07 04:01:00,2.1,-3.6,30.23,WNW,292,0.0,0.0,77,0.00,,,0.00,WUHU21623XXSP,2013-03-07 10:01:00,
2013-03-07 04:06:00,1.4,-4.0,30.23,WNW,292,0.0,0.0,78,0.00,,,0.00,WUHU21623XXSP,2013-03-07 10:06:00,
2013-03-07 04:11:00,2.3,-2.8,30.23,WNW,292,0.0,0.0,79,0.00,,,0.00,WUHU21623XXSP,2013-03-07 10:11:00,
2013-03-07 04:16:00,3.0,-2.1,30.23,WNW,292,0.0,0.0,79,0.00,,,0.00,WUHU21623XXSP,2013-03-07 10:16:00,
2013-03-07 04:21:00,2.8,-2.6,30.23,WNW,292,0.0,0.0,78,0.00,,,0.00,WUHU21623XXSP,2013-03-07 10:21:00,
2013-03-07 04:26:00,3.4,-1.5,30.23,WNW,292,0.0,0.0,80,0.00,,,0.00,WUHU21623XXSP,2013-03-07 10:26:00,
2013-03-07 04:31:00,3.0,-2.1,30.23,WNW,292,0.0,0.0,79,0.00,,,0.00,WUHU21623XXSP,2013-03-07 10:31:00,
2013-03-07 04:36:00,1.9,-3.5,30.23,WNW,292,0.0,0.0,78,0.00,,,0.00,WUHU21623XXSP,2013-03-07 10:36:00,
2013-03-07 04:41:00,2.5,-2.4,30.23,WNW,292,0.0,0.0,80,0.00,,,0.00,WUHU21623XXSP,2013-03-07 10:41:00,
2013-03-07 04:46:00,2.8,-2.0,30.22,WNW,292,0.0,0.0,80,0.00,,,0.00,WUHU21623XXSP,2013-03-07 10:46:00,
2013-03-07 04:51:00,3.4,-1.8,30.23,WNW,292,0.0,0.0,79,0.00,,,0.00,WUHU21623XXSP,2013-03-07 10:51:00,
2013-03-07 04:56:00,4.3,-0.3,30.22,WNW,292,0.0,0.0,81,0.00,,,0.00,WUHU21623XXSP,2013-03-07 10:56:00,
2013-03-07 05:01:00,4.5,-0.1,30.22,WNW,292,0.0,0.0,81,0.00,,,0.00,WUHU21623XXSP,2013-03-07 11:01:00,
2013-03-07 05:06:00,5.2,0.6,30.22,WNW,292,0.0,0.0,81,0.00,,,0.00,WUHU21623XXSP,2013-03-07 11:06:00,
2013-03-07 05:11:00,4.8,0.2,30.22,WNW,292,0.0,0.0,81,0.00,,,0.00,WUHU21623XXSP,2013-03-07 11:11:00,
2013-03-07 05:16:00,4.6,-0.2,30.21,WNW,292,0.0,0.0,80,0.00,,,0.00,WUHU21623XXSP,2013-03-07 11:16:00,
2013-03-07 05:21:00,1.9,-4.0,30.22,WNW,292,0.0,0.0,76,0.00,,,0.00,WUHU21623XXSP,2013-03-07 11:21:00,
2013-03-07 05:26:00,0.3,-5.6,30.22,WNW,292,0.0,0.0,76,0.00,,,0.00,WUHU21623XXSP,2013-03-07 11:26:00,
2013-03-07 05:31:00,0.1,-5.5,30.22,WNW,292,0.0,0.0,77,0.00,,,0.00,WUHU21623XXSP,2013-03-07 11:31:00,
2013-03-07 05:36:00,0.3,-5.3,30.23,WNW,292,0.0,0.0,77,0.00,,,0.00,WUHU21623XXSP,2013-03-07 11:36:00,
2013-03-07 05:41:00,0.7,-4.7,30.23,WNW,292,0.0,0.0,78,0.00,,,0.00,WUHU21623XXSP,2013-03-07 11:41:00,
2013-03-07 05:46:00,1.0,-4.1,30.23,WNW,292,0.0,0.0,79,0.00,,,0.00,WUHU21623XXSP,2013-03-07 11:46:00,
2013-03-07 05:51:00,1.6,-3.6,30.23,WNW,292,0.0,0.0,79,0.00,,,0.00,WUHU21623XXSP,2013-03-07 11:51:00,
2013-03-07 05:56:00,1.8,-3.6,30.23,WNW,292,0.0,0.0,78,0.00,,,0.00,WUHU21623XXSP,2013-03-07 11:56:00,
2013-03-07 06:01:00,1.8,-3.6,30.23,WNW,292,0.0,0.0,78,0.00,,,0.00,WUHU21623XXSP,2013-03-07 12:01:00,
2013-03-07 06:06:00,2.8,-2.0,30.23,WNW,292,0.0,0.0,80,0.00,,,0.00,WUHU21623XXSP,2013-03-07 12:06:00,
2013-03-07 06:11:00,2.5,-2.9,30.23,WNW,292,0.0,0.0,78,0.00,,,0.00,WUHU21623XXSP,2013-03-07 12:11:00,
2013-03-07 06:16:00,2.1,-3.0,30.23,WNW,292,0.0,0.0,79,0.00,,,0.00,WUHU21623XXSP,2013-03-07 12:16:00,
2013-03-07 06:21:00,3.0,-1.8,30.23,WNW,292,0.0,0.0,80,0.00,,,0.00,WUHU21623XXSP,2013-03-07 12:21:00,
2013-03-07 06:26:00,2.5,-2.4,30.23,WNW,292,0.0,0.0,80,0.00,,,0.00,WUHU21623XXSP,2013-03-07 12:26:00,
2013-03-07 06:31:00,3.4,-1.5,30.22,WNW,292,0.0,0.0,80,0.00,,,0.00,WUHU21623XXSP,2013-03-07 12:31:00,
2013-03-07 06:36:00,4.6,0.0,30.22,WNW,292,0.0,0.0,81,0.00,,,0.00,WUHU21623XXSP,2013-03-07 12:36:00,
2013-03-07 06:41:00,2.5,-3.2,30.23,WNW,292,0.0,0.0,77,0.00,,,0.00,WUHU21623XXSP,2013-03-07 12:41:00,
2013-03-07 06:46:00,0.5,-5.1,30.22,WNW,292,0.0,0.0,77,0.00,,,0.00,WUHU21623XXSP,2013-03-07 12:46:00,
2013-03-07 06:51:00,2.3,-2.6,30.23,WNW,292,0.0,0.0,80,0.00,,,0.00,WUHU21623XXSP,2013-03-07 12:51:00,
2013-03-07 06:56:00,3.4,-1.5,30.23,WNW,292,0.0,0.0,80,0.00,,,0.00,WUHU21623XXSP,2013-03-07 12:56:00,
2013-03-07 07:01:00,2.1,-3.3,30.24,WNW,292,0.0,0.0,78,0.00,,,0.00,WUHU21623XXSP,2013-03-07 13:01:00,
2013-03-07 07:06:00,1.4,-4.3,30.24,WNW,292,0.0,0.0,77,0.00,,,0.00,WUHU21623XXSP,2013-03-07 13:06:00,
2013-03-07 07:11:00,3.0,-1.8,30.24,WNW,292,0.0,0.0,80,0.00,,,0.00,WUHU21623XXSP,2013-03-07 13:11:00,
2013-03-07 07:16:00,4.8,0.2,30.24,WNW,292,0.0,0.0,81,0.00,,,0.00,WUHU21623XXSP,2013-03-07 13:16:00,
2013-03-07 07:21:00,5.0,0.4,30.24,WNW,292,0.0,0.0,81,0.00,,,0.00,WUHU21623XXSP,2013-03-07 13:21:00,
2013-03-07 07:26:00,5.4,0.8,30.23,WNW,292,0.0,0.0,81,0.00,,,0.00,WUHU21623XXSP,2013-03-07 13:26:00,
2013-03-07 07:31:00,5.5,0.9,30.23,WNW,292,0.0,0.0,81,0.00,,,0.00,WUHU21623XXSP,2013-03-07 13:31:00,
2013-03-07 07:36:00,5.2,0.0,30.23,WNW,292,0.0,0.0,79,0.00,,,0.00,WUHU21623XXSP,2013-03-07 13:36:00,
2013-03-07 07:41:00,4.1,-1.3,30.23,WNW,292,0.0,0.0,78,0.00,,,0.00,WUHU21623XXSP,2013-03-07 13:41:00,
2013-03-07 07:46:00,3.4,-2.3,30.23,WNW,292,0.0,0.0,77,0.00,,,0.00,WUHU21623XXSP,2013-03-07 13:46:00,
2013-03-07 07:51:00,3.4,-1.8,30.23,WNW,292,0.0,0.0,79,0.00,,,0.00,WUHU21623XXSP,2013-03-07 13:51:00,
2013-03-07 07:56:00,5.2,0.3,30.23,WNW,292,0.0,0.0,80,0.00,,,0.00,WUHU21623XXSP,2013-03-07 13:56:00,
2013-03-07 08:01:00,6.6,2.0,30.23,WNW,292,0.0,0.0,81,0.00,,,0.00,WUHU21623XXSP,2013-03-07 14:01:00,
2013-03-07 08:06:00,8.2,3.6,30.24,WNW,292,0.0,0.0,81,0.00,,,0.00,WUHU21623XXSP,2013-03-07 14:06:00,
2013-03-07 08:11:00,7.2,2.0,30.24,WNW,292,0.0,0.0,79,0.00,,,0.00,WUHU21623XXSP,2013-03-07 14:11:00,
2013-03-07 08:16:00,7.0,1.8,30.24,WNW,292,0.0,0.0,79,0.00,,,0.00,WUHU21623XXSP,2013-03-07 14:16:00,
2013-03-07 08:21:00,8.4,3.6,30.24,WNW,292,0.0,0.0,80,0.00,,,0.00,WUHU21623XXSP,2013-03-07 14:21:00,
2013-03-07 08:26:00,10.0,5.3,30.24,WNW,292,0.0,0.0,81,0.00,,,0.00,WUHU21623XXSP,2013-03-07 14:26:00,
2013-03-07 08:31:00,10.2,5.2,30.24,WNW,292,0.0,0.0,80,0.00,,,0.00,WUHU21623XXSP,2013-03-07 14:31:00,
2013-03-07 08:36:00,10.2,5.2,30.23,WNW,292,0.0,0.0,80,0.00,,,0.00,WUHU21623XXSP,2013-03-07 14:36:00,
2013-03-07 08:41:00,11.5,6.7,30.24,WNW,292,0.0,0.0,81,0.00,,,0.00,WUHU21623XXSP,2013-03-07 14:41:00,
2013-03-07 08:46:00,12.4,7.3,30.24,WNW,292,0.0,0.0,80,0.00,,,0.00,WUHU21623XXSP,2013-03-07 14:46:00,
2013-03-07 08:51:00,12.4,7.3,30.24,WNW,292,0.0,0.0,80,0.00,,,0.00,WUHU21623XXSP,2013-03-07 14:51:00,
2013-03-07 08:56:00,13.8,9.1,30.24,WNW,292,0.0,0.0,81,0.00,,,0.00,WUHU21623XXSP,2013-03-07 14:56:00,
2013-03-07 09:01:00,14.5,9.2,30.24,WNW,292,0.0,0.0,79,0.00,,,0.00,WUHU21623XXSP,2013-03-07 15:01:00,
2013-03-07 09:06:00,15.3,9.9,30.24,WNW,292,0.0,0.0,79,0.00,,,0.00,WUHU21623XXSP,2013-03-07 15:06:00,
2013-03-07 09:11:00,17.2,10.9,30.23,NNE,22,0.2,2.5,76,0.00,,,0.00,WUHU21623XXSP,2013-03-07 15:11:00,
2013-03-07 09:16:00,18.0,11.3,30.24,NNE,22,3.1,3.1,75,0.00,,,0.00,WUHU21623XXSP,2013-03-07 15:16:00,
2013-03-07 09:21:00,18.5,10.6,30.24,NNE,30,1.4,4.5,71,0.00,,,0.00,WUHU21623XXSP,2013-03-07 15:21:00,
2013-03-07 09:26:00,18.3,10.1,30.24,ENE,67,0.5,4.5,70,0.00,,,0.00,WUHU21623XXSP,2013-03-07 15:26:00,
2013-03-07 09:31:00,18.3,9.8,30.24,East,83,0.8,3.4,69,0.00,,,0.00,WUHU21623XXSP,2013-03-07 15:31:00,
2013-03-07 09:36:00,19.2,11.0,30.24,ENE,67,0.0,3.4,70,0.00,,,0.00,WUHU21623XXSP,2013-03-07 15:36:00,
2013-03-07 09:41:00,19.2,9.9,30.24,SSE,157,3.1,3.1,67,0.00,,,0.00,WUHU21623XXSP,2013-03-07 15:41:00,
2013-03-07 09:47:00,19.4,10.4,30.24,SSW,202,2.7,3.4,68,0.00,,,0.00,WUHU21623XXSP,2013-03-07 15:47:00,
2013-03-07 09:52:00,20.3,11.0,30.24,ENE,66,1.1,5.1,67,0.00,,,0.00,WUHU21623XXSP,2013-03-07 15:52:00,
2013-03-07 09:57:00,21.0,10.3,30.24,NNE,22,2.9,5.1,63,0.00,,,0.00,WUHU21623XXSP,2013-03-07 15:57:00,
2013-03-07 10:02:00,21.2,10.9,30.24,NNE,22,0.2,4.0,64,0.00,,,0.00,WUHU21623XXSP,2013-03-07 16:02:00,
2013-03-07 10:07:00,21.4,11.0,30.24,NNE,22,0.2,2.9,64,0.00,,,0.00,WUHU21623XXSP,2013-03-07 16:07:00,
2013-03-07 10:12:00,21.0,10.3,30.24,South,171,1.2,4.0,63,0.00,,,0.00,WUHU21623XXSP,2013-03-07 16:12:00,
2013-03-07 10:17:00,21.4,10.7,30.24,SSE,157,0.0,4.5,63,0.00,,,0.00,WUHU21623XXSP,2013-03-07 16:17:00,
2013-03-07 10:22:00,23.2,12.0,30.24,NNE,28,1.0,4.5,62,0.00,,,0.00,WUHU21623XXSP,2013-03-07 16:22:00,
2013-03-07 10:27:00,22.6,10.4,30.23,NE,45,4.3,4.5,59,0.00,,,0.00,WUHU21623XXSP,2013-03-07 16:27:00,
2013-03-07 10:32:00,24.1,11.8,30.23,NNE,22,2.5,4.5,59,0.00,,,0.00,WUHU21623XXSP,2013-03-07 16:32:00,
2013-03-07 10:37:00,23.5,10.5,30.23,NE,45,2.9,4.7,57,0.00,,,0.00,WUHU21623XXSP,2013-03-07 16:37:00,
2013-03-07 10:42:00,22.8,10.1,30.24,ENE,67,1.3,4.7,58,0.00,,,0.00,WUHU21623XXSP,2013-03-07 16:42:00,
2013-03-07 10:47:00,22.8,10.1,30.23,ENE,67,0.6,3.6,58,0.00,,,0.00,WUHU21623XXSP,2013-03-07 16:47:00,
2013-03-07 10:52:00,22.5,9.8,30.23,ENE,67,3.6,4.0,58,0.00,,,0.00,WUHU21623XXSP,2013-03-07 16:52:00,
2013-03-07 10:57:00,23.2,10.1,30.23,NE,45,2.0,5.4,57,0.00,,,0.00,WUHU21623XXSP,2013-03-07 16:57:00,
2013-03-07 11:02:00,23.5,10.8,30.23,NNE,22,2.7,5.4,58,0.00,,,0.00,WUHU21623XXSP,2013-03-07 17:02:00,
2013-03-07 11:07:00,23.7,10.2,30.23,NE,45,0.6,5.1,56,0.00,,,0.00,WUHU21623XXSP,2013-03-07 17:07:00,
2013-03-07 11:12:00,23.5,10.8,30.23,NE,45,1.4,3.4,58,0.00,,,0.00,WUHU21623XXSP,2013-03-07 17:12:00,
2013-03-07 11:17:00,24.1,11.0,30.23,NE,45,0.5,3.4,57,0.00,,,0.00,WUHU21623XXSP,2013-03-07 17:17:00,
2013-03-07 11:22:00,25.5,11.5,30.23,NNE,22,2.9,4.9,55,0.00,,,0.00,WUHU21623XXSP,2013-03-07 17:22:00,
2013-03-07 11:27:00,25.3,10.9,30.23,SE,135,3.8,4.9,54,0.00,,,0.00,WUHU21623XXSP,2013-03-07 17:27:00,
2013-03-07 11:32:00,25.0,11.4,30.23,North,0,3.1,4.7,56,0.00,,,0.00,WUHU21623XXSP,2013-03-07 17:32:00,
2013-03-07 11:37:00,25.7,11.2,30.23,NW,315,0.7,4.7,54,0.00,,,0.00,WUHU21623XXSP,2013-03-07 17:37:00,
2013-03-07 11:42:00,25.5,11.1,30.23,NW,315,0.1,4.7,54,0.00,,,0.00,WUHU21623XXSP,2013-03-07 17:42:00,
2013-03-07 11:47:00,25.3,10.5,30.23,ESE,118,2.2,5.8,53,0.00,,,0.00,WUHU21623XXSP,2013-03-07 17:47:00,
2013-03-07 11:52:00,25.5,10.3,30.23,NNE,22,3.6,7.8,52,0.00,,,0.00,WUHU21623XXSP,2013-03-07 17:52:00,
2013-03-07 11:57:00,25.9,11.4,30.23,NE,45,5.1,7.8,54,0.00,,,0.00,WUHU21623XXSP,2013-03-07 17:57:00,
2013-03-07 12:02:00,26.4,11.5,30.23,NE,56,1.9,5.1,53,0.00,,,0.00,WUHU21623XXSP,2013-03-07 18:02:00,
2013-03-07 12:07:00,27.1,12.2,30.23,ESE,112,1.1,4.7,53,0.00,,,0.00,WUHU21623XXSP,2013-03-07 18:07:00,
2013-03-07 12:12:00,28.2,13.7,30.22,SSW,202,2.9,3.8,54,0.00,,,0.00,WUHU21623XXSP,2013-03-07 18:12:00,
2013-03-07 12:17:00,27.7,11.5,30.22,South,180,5.4,5.4,50,0.00,,,0.00,WUHU21623XXSP,2013-03-07 18:17:00,
2013-03-07 12:22:00,27.7,11.5,30.23,South,180,4.7,6.9,50,0.00,,,0.00,WUHU21623XXSP,2013-03-07 18:22:00,
2013-03-07 12:27:00,28.2,13.7,30.22,SSW,202,3.1,7.4,54,0.00,,,0.00,WUHU21623XXSP,2013-03-07 18:27:00,
2013-03-07 12:32:00,28.2,12.0,30.22,SSE,157,4.3,7.4,50,0.00,,,0.00,WUHU21623XXSP,2013-03-07 18:32:00,
2013-03-07 12:37:00,28.0,11.3,30.22,SE,145,3.1,5.8,49,0.00,,,0.00,WUHU21623XXSP,2013-03-07 18:37:00,
2013-03-07 12:42:00,27.7,11.9,30.22,SSE,157,1.0,5.1,51,0.00,,,0.00,WUHU21623XXSP,2013-03-07 18:42:00,
2013-03-07 12:47:00,29.1,12.3,30.21,SSW,200,1.4,6.9,49,0.00,,,0.00,WUHU21623XXSP,2013-03-07 18:47:00,
2013-03-07 12:52:00,29.1,11.8,30.21,SSW,210,3.4,6.9,48,0.00,,,0.00,WUHU21623XXSP,2013-03-07 18:52:00,
2013-03-07 12:57:00,28.9,12.2,30.21,SE,135,4.3,5.8,49,0.00,,,0.00,WUHU21623XXSP,2013-03-07 18:57:00,
2013-03-07 13:02:00,28.8,12.0,30.20,East,90,4.3,5.8,49,0.00,,,0.00,WUHU21623XXSP,2013-03-07 19:02:00,
2013-03-07 13:07:00,28.8,12.0,30.20,ESE,110,2.2,7.6,49,0.00,,,0.00,WUHU21623XXSP,2013-03-07 19:07:00,
2013-03-07 13:12:00,28.8,12.0,30.20,SE,129,3.4,7.6,49,0.00,,,0.00,WUHU21623XXSP,2013-03-07 19:12:00,
2013-03-07 13:17:00,29.1,12.3,30.20,East,84,2.6,5.1,49,0.00,,,0.00,WUHU21623XXSP,2013-03-07 19:17:00,
2013-03-07 13:22:00,29.5,13.2,30.20,SW,228,1.2,4.9,50,0.00,,,0.00,WUHU21623XXSP,2013-03-07 19:22:00,
2013-03-07 13:28:00,30.2,13.8,30.20,SSE,157,4.5,4.9,50,0.00,,,0.00,WUHU21623XXSP,2013-03-07 19:28:00,
2013-03-07 13:33:00,29.8,12.5,30.19,South,180,2.0,4.9,48,0.00,,,0.00,WUHU21623XXSP,2013-03-07 19:33:00,
2013-03-07 13:38:00,30.0,12.6,30.19,South,180,4.9,4.9,48,0.00,,,0.00,WUHU21623XXSP,2013-03-07 19:38:00,
2013-03-07 13:43:00,29.8,13.5,30.19,SSW,209,1.9,4.9,50,0.00,,,0.00,WUHU21623XXSP,2013-03-07 19:43:00,
2013-03-07 13:48:00,29.5,12.7,30.19,East,90,0.0,4.5,49,0.00,,,0.00,WUHU21623XXSP,2013-03-07 19:48:00,
2013-03-07 13:53:00,30.7,14.7,30.19,SW,225,2.0,4.5,51,0.00,,,0.00,WUHU21623XXSP,2013-03-07 19:53:00,
2013-03-07 13:58:00,31.1,13.6,30.19,SSW,212,2.2,7.4,48,0.00,,,0.00,WUHU21623XXSP,2013-03-07 19:58:00,
2013-03-07 14:03:00,31.3,12.8,30.19,SSE,168,3.2,7.4,46,0.00,,,0.00,WUHU21623XXSP,2013-03-07 20:03:00,
2013-03-07 14:08:00,31.1,14.0,30.19,SE,135,1.6,7.2,47,0.00,,,0.00,WUHU21623XXSP,2013-03-07 20:08:00,
2013-03-07 14:13:00,30.4,13.0,30.19,ESE,112,0.0,7.2,48,0.00,,,0.00,WUHU21623XXSP,2013-03-07 20:13:00,
2013-03-07 14:18:00,31.5,12.9,30.19,SW,225,2.3,4.9,46,0.00,,,0.00,WUHU21623XXSP,2013-03-07 20:18:00,
2013-03-07 14:23:00,31.6,13.1,30.19,SE,135,2.2,4.9,46,0.00,,,0.00,WUHU21623XXSP,2013-03-07 20:23:00,
2013-03-07 14:28:00,32.9,14.7,30.18,SW,235,4.5,7.8,47,0.00,,,0.00,WUHU21623XXSP,2013-03-07 20:28:00,
2013-03-07 14:33:00,32.5,12.9,30.18,South,175,3.8,7.8,44,0.00,,,0.00,WUHU21623XXSP,2013-03-07 20:33:00,
2013-03-07 14:38:00,31.8,13.8,30.18,SE,135,2.7,6.5,47,0.00,,,0.00,WUHU21623XXSP,2013-03-07 20:38:00,
2013-03-07 14:43:00,31.6,12.6,30.18,ENE,67,0.4,5.1,45,0.00,,,0.00,WUHU21623XXSP,2013-03-07 20:43:00,
2013-03-07 14:48:00,31.8,13.3,30.18,ESE,112,1.1,3.6,46,0.00,,,0.00,WUHU21623XXSP,2013-03-07 20:48:00,
2013-03-07 14:53:00,32.5,13.9,30.18,SE,141,2.2,6.5,46,0.00,,,0.00,WUHU21623XXSP,2013-03-07 20:53:00,
2013-03-07 14:58:00,32.7,13.1,30.18,South,174,2.4,6.5,44,0.00,,,0.00,WUHU21623XXSP,2013-03-07 20:58:00,
2013-03-07 15:03:00,32.7,14.1,30.18,WSW,247,2.0,6.3,46,0.00,,,0.00,WUHU21623XXSP,2013-03-07 21:03:00,
2013-03-07 15:08:00,32.7,13.1,30.17,WSW,247,1.2,2.2,44,0.00,,,0.00,WUHU21623XXSP,2013-03-07 21:08:00,
2013-03-07 15:13:00,33.1,13.4,30.17,WSW,247,3.7,6.5,44,0.00,,,0.00,WUHU21623XXSP,2013-03-07 21:13:00,
2013-03-07 15:18:00,32.9,13.7,30.17,SW,225,3.6,6.5,45,0.00,,,0.00,WUHU21623XXSP,2013-03-07 21:18:00,
2013-03-07 15:23:00,33.3,13.6,30.17,WSW,247,2.6,6.7,44,0.00,,,0.00,WUHU21623XXSP,2013-03-07 21:23:00,
2013-03-07 15:28:00,33.6,14.4,30.17,WSW,247,2.9,6.7,45,0.00,,,0.00,WUHU21623XXSP,2013-03-07 21:28:00,
2013-03-07 15:33:00,33.6,13.8,30.17,WSW,247,1.9,5.4,44,0.00,,,0.00,WUHU21623XXSP,2013-03-07 21:33:00,
2013-03-07 15:38:00,33.6,13.9,30.17,WSW,247,4.9,6.9,44,0.00,,,0.00,WUHU21623XXSP,2013-03-07 21:38:00,
2013-03-07 15:43:00,34.3,15.0,30.17,WSW,247,2.0,6.9,45,0.00,,,0.00,WUHU21623XXSP,2013-03-07 21:43:00,
2013-03-07 15:48:00,33.8,14.5,30.17,WSW,247,1.5,6.3,45,0.00,,,0.00,WUHU21623XXSP,2013-03-07 21:48:00,
2013-03-07 15:53:00,34.0,14.7,30.17,WSW,247,4.3,4.3,45,0.00,,,0.00,WUHU21623XXSP,2013-03-07 21:53:00,
2013-03-07 15:58:00,33.6,13.9,30.17,WSW,247,0.4,5.8,44,0.00,,,0.00,WUHU21623XXSP,2013-03-07 21:58:00,
2013-03-07 16:03:00,34.3,15.0,30.17,WSW,247,1.8,5.8,45,0.00,,,0.00,WUHU21623XXSP,2013-03-07 22:03:00,
2013-03-07 16:08:00,34.2,14.4,30.17,SSE,147,1.6,4.3,44,0.00,,,0.00,WUHU21623XXSP,2013-03-07 22:08:00,
2013-03-07 16:13:00,34.3,14.5,30.17,SW,215,2.1,5.4,44,0.00,,,0.00,WUHU21623XXSP,2013-03-07 22:13:00,
2013-03-07 16:18:00,34.2,14.4,30.17,SW,236,2.1,5.4,44,0.00,,,0.00,WUHU21623XXSP,2013-03-07 22:18:00,
2013-03-07 16:23:00,34.3,14.5,30.17,WSW,247,2.9,6.9,44,0.00,,,0.00,WUHU21623XXSP,2013-03-07 22:23:00,
2013-03-07 16:28:00,34.0,14.2,30.17,SSW,202,5.8,6.9,44,0.00,,,0.00,WUHU21623XXSP,2013-03-07 22:28:00,
2013-03-07 16:33:00,34.0,14.2,30.17,SSE,166,3.0,6.9,44,0.00,,,0.00,WUHU21623XXSP,2013-03-07 22:33:00,
2013-03-07 16:38:00,33.8,14.0,30.17,SSE,160,3.2,7.2,44,0.00,,,0.00,WUHU21623XXSP,2013-03-07 22:38:00,
2013-03-07 16:43:00,33.6,13.9,30.17,SE,135,3.4,7.2,44,0.00,,,0.00,WUHU21623XXSP,2013-03-07 22:43:00,
2013-03-07 16:48:00,33.4,13.7,30.17,SE,135,2.5,4.3,44,0.00,,,0.00,WUHU21623XXSP,2013-03-07 22:48:00,
2013-03-07 16:53:00,33.1,13.4,30.17,SE,143,1.6,4.3,44,0.00,,,0.00,WUHU21623XXSP,2013-03-07 22:53:00,
2013-03-07 16:58:00,32.9,13.7,30.17,SSE,166,1.3,4.3,45,0.00,,,0.00,WUHU21623XXSP,2013-03-07 22:58:00,
2013-03-07 17:03:00,32.7,13.1,30.17,SE,141,1.1,3.1,44,0.00,,,0.00,WUHU21623XXSP,2013-03-07 23:03:00,
2013-03-07 17:08:00,32.7,14.1,30.17,SSE,154,1.0,3.1,46,0.00,,,0.00,WUHU21623XXSP,2013-03-07 23:08:00,
2013-03-07 17:13:00,32.4,13.2,30.17,SSE,157,1.8,5.4,45,0.00,,,0.00,WUHU21623XXSP,2013-03-07 23:13:00,
2013-03-07 17:18:00,32.2,13.1,30.17,SSE,156,0.7,5.4,45,0.00,,,0.00,WUHU21623XXSP,2013-03-07 23:18:00,
2013-03-07 17:23:00,32.0,13.4,30.17,SSE,157,2.0,2.7,46,0.00,,,0.00,WUHU21623XXSP,2013-03-07 23:23:00,
2013-03-07 17:28:00,31.8,13.7,30.17,SSE,150,1.9,3.4,47,0.00,,,0.00,WUHU21623XXSP,2013-03-07 23:28:00,
2013-03-07 17:33:00,31.3,13.8,30.17,SE,135,3.8,4.7,48,0.00,,,0.00,WUHU21623XXSP,2013-03-07 23:33:00,
2013-03-07 17:38:00,30.9,14.0,30.17,SSE,157,3.6,6.9,49,0.00,,,0.00,WUHU21623XXSP,2013-03-07 23:38:00,
2013-03-07 17:43:00,30.7,13.8,30.17,SSE,155,2.7,6.9,49,0.00,,,0.00,WUHU21623XXSP,2013-03-07 23:43:00,
2013-03-07 17:48:00,30.0,13.7,30.17,SSE,157,1.8,3.6,50,0.00,,,0.00,WUHU21623XXSP,2013-03-07 23:48:00,
2013-03-07 17:53:00,29.8,13.9,30.17,SSE,154,2.6,3.8,51,0.00,,,0.00,WUHU21623XXSP,2013-03-07 23:53:00,
2013-03-07 17:58:00,29.5,14.0,30.17,SSE,156,2.3,4.5,52,0.00,,,0.00,WUHU21623XXSP,2013-03-07 23:58:00,
2013-03-07 18:03:00,29.5,14.0,30.17,SE,133,2.0,4.5,52,0.00,,,0.00,WUHU21623XXSP,2013-03-08 00:03:00,
2013-03-07 18:08:00,28.9,14.3,30.17,SE,146,2.7,4.5,54,0.00,,,0.00,WUHU21623XXSP,2013-03-08 00:08:00,
2013-03-07 18:13:00,28.6,14.4,30.18,SE,131,1.6,4.5,55,0.00,,,0.00,WUHU21623XXSP,2013-03-08 00:13:00,
2013-03-07 18:18:00,28.2,14.1,30.18,SE,135,3.4,6.0,55,0.00,,,0.00,WUHU21623XXSP,2013-03-08 00:18:00,
2013-03-07 18:23:00,28.0,14.3,30.18,SE,132,2.9,6.0,56,0.00,,,0.00,WUHU21623XXSP,2013-03-08 00:23:00,
2013-03-07 18:28:00,27.7,14.0,30.17,SE,138,1.7,5.8,56,0.00,,,0.00,WUHU21623XXSP,2013-03-08 00:28:00,
2013-03-07 18:33:00,27.3,14.1,30.17,SE,138,2.2,4.9,57,0.00,,,0.00,WUHU21623XXSP,2013-03-08 00:33:00,
2013-03-07 18:38:00,26.8,14.0,30.17,SE,137,2.1,5.6,58,0.00,,,0.00,WUHU21623XXSP,2013-03-08 00:38:00,
2013-03-07 18:43:00,26.4,13.6,30.17,SSE,158,3.0,5.6,58,0.00,,,0.00,WUHU21623XXSP,2013-03-08 00:43:00,
2013-03-07 18:48:00,26.4,13.6,30.17,SE,135,3.1,5.1,58,0.00,,,0.00,WUHU21623XXSP,2013-03-08 00:48:00,
2013-03-07 18:53:00,26.2,13.4,30.17,SSE,154,3.0,7.2,58,0.00,,,0.00,WUHU21623XXSP,2013-03-08 00:53:00,
2013-03-07 18:58:00,25.9,13.5,30.17,SE,144,3.6,7.2,59,0.00,,,0.00,WUHU21623XXSP,2013-03-08 00:58:00,
2013-03-07 19:04:00,25.5,13.2,30.17,SE,135,3.1,7.4,59,0.00,,,0.00,WUHU21623XXSP,2013-03-08 01:04:00,
2013-03-07 19:09:00,25.3,13.4,30.18,SSE,157,2.7,7.4,60,0.00,,,0.00,WUHU21623XXSP,2013-03-08 01:09:00,
2013-03-07 19:14:00,25.2,13.2,30.18,SSE,167,1.6,4.5,60,0.00,,,0.00,WUHU21623XXSP,2013-03-08 01:14:00,
2013-03-07 19:19:00,25.0,13.1,30.18,SE,128,0.8,3.1,60,0.00,,,0.00,WUHU21623XXSP,2013-03-08 01:19:00,
2013-03-07 19:24:00,24.6,13.1,30.18,SE,131,1.3,3.1,61,0.00,,,0.00,WUHU21623XXSP,2013-03-08 01:24:00,
2013-03-07 19:29:00,24.4,12.9,30.17,SE,135,2.2,4.3,61,0.00,,,0.00,WUHU21623XXSP,2013-03-08 01:29:00,
2013-03-07 19:34:00,24.1,12.9,30.18,SE,135,4.0,4.3,62,0.00,,,0.00,WUHU21623XXSP,2013-03-08 01:34:00,
2013-03-07 19:39:00,23.9,12.7,30.18,SE,135,1.1,4.0,62,0.00,,,0.00,WUHU21623XXSP,2013-03-08 01:39:00,
2013-03-07 19:44:00,23.9,12.7,30.18,SE,135,1.5,2.9,62,0.00,,,0.00,WUHU21623XXSP,2013-03-08 01:44:00,
2013-03-07 19:49:00,23.7,12.9,30.17,SE,135,2.5,5.1,63,0.00,,,0.00,WUHU21623XXSP,2013-03-08 01:49:00,
2013-03-07 19:54:00,23.4,12.9,30.17,SSE,157,0.5,5.1,64,0.00,,,0.00,WUHU21623XXSP,2013-03-08 01:54:00,
2013-03-07 19:59:00,23.0,12.6,30.17,SE,135,4.0,4.0,64,0.00,,,0.00,WUHU21623XXSP,2013-03-08 01:59:00,
2013-03-07 20:04:00,23.0,12.9,30.18,SSE,157,0.7,4.5,65,0.00,,,0.00,WUHU21623XXSP,2013-03-08 02:04:00,
2013-03-07 20:09:00,23.0,12.9,30.18,SE,135,0.6,4.5,65,0.00,,,0.00,WUHU21623XXSP,2013-03-08 02:09:00,
2013-03-07 20:14:00,22.8,12.7,30.18,ESE,115,0.7,4.5,65,0.00,,,0.00,WUHU21623XXSP,2013-03-08 02:14:00,
2013-03-07 20:19:00,22.5,12.4,30.18,SSE,148,1.6,4.7,65,0.00,,,0.00,WUHU21623XXSP,2013-03-08 02:19:00,
2013-03-07 20:24:00,22.1,12.4,30.18,SE,135,3.1,11.9,66,0.00,,,0.00,WUHU21623XXSP,2013-03-08 02:24:00,
2013-03-07 20:29:00,21.9,12.2,30.18,SE,135,0.2,13.6,66,0.00,,,0.00,WUHU21623XXSP,2013-03-08 02:29:00,
2013-03-07 20:34:00,21.7,12.4,30.18,ESE,122,1.3,13.6,67,0.00,,,0.00,WUHU21623XXSP,2013-03-08 02:34:00,
2013-03-07 20:39:00,21.4,12.1,30.18,SE,135,3.8,4.7,67,0.00,,,0.00,WUHU21623XXSP,2013-03-08 02:39:00,
2013-03-07 20:44:00,21.0,12.2,30.18,ESE,107,2.3,4.5,68,0.00,,,0.00,WUHU21623XXSP,2013-03-08 02:44:00,
2013-03-07 20:49:00,20.8,11.9,30.18,South,180,5.6,6.0,68,0.00,,,0.00,WUHU21623XXSP,2013-03-08 02:49:00,
2013-03-07 20:54:00,20.8,11.9,30.18,ESE,110,2.0,6.5,68,0.00,,,0.00,WUHU21623XXSP,2013-03-08 02:54:00,
2013-03-07 20:59:00,20.1,11.5,30.18,ESE,115,3.6,6.5,69,0.00,,,0.00,WUHU21623XXSP,2013-03-08 02:59:00,
2013-03-07 21:04:00,19.9,11.3,30.18,SE,128,1.8,5.6,69,0.00,,,0.00,WUHU21623XXSP,2013-03-08 03:04:00,
2013-03-07 21:09:00,19.6,11.3,30.17,SE,135,3.6,5.4,70,0.00,,,0.00,WUHU21623XXSP,2013-03-08 03:09:00,
2013-03-07 21:14:00,19.2,11.2,30.17,SE,135,4.3,5.1,71,0.00,,,0.00,WUHU21623XXSP,2013-03-08 03:14:00,
2013-03-07 21:19:00,18.9,10.9,30.17,ESE,112,7.6,7.6,71,0.00,,,0.00,WUHU21623XXSP,2013-03-08 03:19:00,
2013-03-07 21:24:00,18.7,11.1,30.17,ENE,64,1.6,7.6,72,0.00,,,0.00,WUHU21623XXSP,2013-03-08 03:24:00,
2013-03-07 21:29:00,18.5,11.5,30.17,SE,126,0.8,7.6,74,0.00,,,0.00,WUHU21623XXSP,2013-03-08 03:29:00,
2013-03-07 21:34:00,18.1,10.6,30.17,ENE,67,2.9,4.7,72,0.00,,,0.00,WUHU21623XXSP,2013-03-08 03:34:00,
2013-03-07 21:39:00,17.8,10.5,30.17,SSE,148,2.8,7.4,73,0.00,,,0.00,WUHU21623XXSP,2013-03-08 03:39:00,
2013-03-07 21:44:00,17.4,10.5,30.17,SE,134,3.3,7.4,74,0.00,,,0.00,WUHU21623XXSP,2013-03-08 03:44:00,
2013-03-07 21:49:00,17.4,10.5,30.17,SE,136,2.9,6.7,74,0.00,,,0.00,WUHU21623XXSP,2013-03-08 03:49:00,
2013-03-07 21:54:00,17.4,10.8,30.17,SSE,151,2.7,6.7,75,0.00,,,0.00,WUHU21623XXSP,2013-03-08 03:54:00,
2013-03-07 21:59:00,17.2,10.6,30.17,SSE,157,7.8,7.8,75,0.00,,,0.00,WUHU21623XXSP,2013-03-08 03:59:00,
2013-03-07 22:04:00,16.9,10.3,30.17,SE,135,3.8,7.8,75,0.00,,,0.00,WUHU21623XXSP,2013-03-08 04:04:00,
2013-03-07 22:09:00,16.9,10.5,30.17,East,99,2.4,7.6,76,0.00,,,0.00,WUHU21623XXSP,2013-03-08 04:09:00,
2013-03-07 22:14:00,16.9,10.5,30.17,SSE,157,3.1,5.8,76,0.00,,,0.00,WUHU21623XXSP,2013-03-08 04:14:00,
2013-03-07 22:19:00,16.7,10.4,30.17,SE,135,2.2,5.8,76,0.00,,,0.00,WUHU21623XXSP,2013-03-08 04:19:00,
2013-03-07 22:24:00,16.5,10.5,30.17,East,90,3.4,5.1,77,0.00,,,0.00,WUHU21623XXSP,2013-03-08 04:24:00,
2013-03-07 22:29:00,16.3,10.3,30.17,SSE,157,1.3,5.1,77,0.00,,,0.00,WUHU21623XXSP,2013-03-08 04:29:00,
2013-03-07 22:34:00,16.3,10.3,30.18,SE,135,2.5,6.0,77,0.00,,,0.00,WUHU21623XXSP,2013-03-08 04:34:00,
2013-03-07 22:39:00,16.3,10.3,30.17,SE,135,2.2,6.0,77,0.00,,,0.00,WUHU21623XXSP,2013-03-08 04:39:00,
2013-03-07 22:44:00,16.3,10.3,30.18,South,180,0.0,5.6,77,0.00,,,0.00,WUHU21623XXSP,2013-03-08 04:44:00,
2013-03-07 22:49:00,16.2,10.5,30.17,SSE,157,4.5,7.4,78,0.00,,,0.00,WUHU21623XXSP,2013-03-08 04:49:00,
2013-03-07 22:54:00,16.3,10.6,30.17,SSE,151,3.8,8.1,78,0.00,,,0.00,WUHU21623XXSP,2013-03-08 04:54:00,
2013-03-07 22:59:00,16.3,10.6,30.17,East,90,2.0,8.1,78,0.00,,,0.00,WUHU21623XXSP,2013-03-08 04:59:00,
2013-03-07 23:00:00,16.3,10.6,30.18,East,90,0.9,8.1,78,0.00,,,0.00,WUHU21623XXSP,2013-03-08 05:00:00,
2013-03-07 23:02:00,16.2,10.8,30.17,SE,140,3.0,8.1,79,0.00,,,0.00,WUHU21623XXSP,2013-03-08 05:02:00,
2013-03-07 23:07:00,16.2,10.8,30.17,SE,135,3.4,5.1,79,0.00,,,0.00,WUHU21623XXSP,2013-03-08 05:07:00,
2013-03-07 23:12:00,16.0,10.6,30.17,ESE,112,0.5,6.3,79,0.00,,,0.00,WUHU21623XXSP,2013-03-08 05:12:00,
2013-03-07 23:17:00,16.0,10.6,30.17,South,175,2.2,6.3,79,0.00,,,0.00,WUHU21623XXSP,2013-03-08 05:17:00,
2013-03-07 23:22:00,15.8,10.5,30.18,SSE,157,0.7,5.8,79,0.00,,,0.00,WUHU21623XXSP,2013-03-08 05:22:00,
2013-03-07 23:27:00,15.8,10.8,30.18,South,180,2.0,6.0,80,0.00,,,0.00,WUHU21623XXSP,2013-03-08 05:27:00,
2013-03-07 23:32:00,15.8,10.8,30.18,ESE,112,0.1,6.0,80,0.00,,,0.00,WUHU21623XXSP,2013-03-08 05:32:00,
2013-03-07 23:37:00,16.0,10.9,30.18,SE,135,1.2,3.6,80,0.00,,,0.00,WUHU21623XXSP,2013-03-08 05:37:00,
2013-03-07 23:42:00,15.8,10.8,30.19,SE,135,0.3,3.6,80,0.00,,,0.00,WUHU21623XXSP,2013-03-08 05:42:00,
2013-03-07 23:47:00,15.8,10.8,30.19,SE,135,2.0,3.6,80,0.00,,,0.00,WUHU21623XXSP,2013-03-08 05:47:00,
2013-03-07 23:52:00,16.0,10.9,30.19,SE,135,0.0,3.6,80,0.00,,,0.00,WUHU21623XXSP,2013-03-08 05:52:00,
2013-03-07 23:57:00,16.0,10.9,30.19,SE,135,1.8,1.8,80,0.00,,,0.00,WUHU21623XXSP,2013-03-08 05:57:00,